^^
Station Historical Data
Daily Summary for January 20, 2018 Units:  English    Metric   Both
« Previous Day
Next Day »
Daily Weekly Monthly Yearly Custom
  High: Low: Average:
Temperature: TemperatureF °F 68.4 °F 74.3 °F
Dew Point: DewpointF °F 50.2 °F 52.6 °F
Humidity: Humidity% 33% 47%
Wind Speed: WindSpeedMPHmph 0.0mph 1.3mph
Wind Gust: WindSpeedGustMPHmph - -
Wind- - South
Pressure: PressureIn in 29.59 in -
Precipitation: 0.02 in    
Historical Graphs
 
 
Tabular Data for January 20, 2018
Time Temperature Dew Point Pressure Wind Wind Speed Wind Gust Humidity Rainfall Rate (Hourly) solar Conditions
TemperatureF °F DewpointF °F PressureIn in Calm     Humidity% HourlyPrecipIn in SolarRadiationWatts/m^2 W/m2 Conditions
00:04 73.4 °F 53.6 °F 29.66 in Calm     50% 0.00 in 0.0 W/m2
00:09 73.2 °F 53.4 °F 29.65 in Calm     50% 0.00 in 0.0 W/m2
00:14 73.2 °F 53.4 °F 29.65 in Calm     50% 0.00 in 0.0 W/m2
00:19 73.2 °F 53.4 °F 29.65 in Calm   1.0 mph 50% 0.00 in 0.0 W/m2
00:24 73.2 °F 54.0 °F 29.65 in Calm   1.0 mph 51% 0.00 in 0.0 W/m2
00:29 73.2 °F 54.0 °F 29.65 in Calm   1.0 mph 51% 0.00 in 0.0 W/m2
00:35 73.2 °F 54.0 °F 29.65 in Calm     51% 0.00 in 0.0 W/m2
00:41 73.2 °F 54.0 °F 29.66 in Calm     51% 0.00 in 0.0 W/m2
00:46 73.0 °F 53.8 °F 29.66 in Calm     51% 0.00 in 0.0 W/m2
00:51 73.0 °F 53.8 °F 29.66 in Calm     51% 0.00 in 0.0 W/m2
00:56 72.9 °F 54.1 °F 29.66 in Calm   1.0 mph 52% 0.00 in 0.0 W/m2
01:01 72.9 °F 54.7 °F 29.66 in WNW 4.0 mph 6.0 mph 53% 0.00 in 0.0 W/m2
01:06 72.9 °F 52.5 °F 29.66 in NNW 4.9 mph 7.0 mph 49% 0.00 in 0.0 W/m2
01:11 72.7 °F 52.3 °F 29.66 in North 0.9 mph 6.0 mph 49% 0.00 in 0.0 W/m2
01:17 72.5 °F 52.3 °F 29.66 in North 4.0 mph 10.0 mph 49% 0.00 in 0.0 W/m2
01:23 72.3 °F 52.7 °F 29.65 in NNE 2.0 mph 5.0 mph 50% 0.00 in 0.0 W/m2
01:28 72.1 °F 52.5 °F 29.66 in NNE 0.9 mph 5.0 mph 50% 0.00 in 0.0 W/m2
01:33 72.0 °F 52.3 °F 29.66 in NNE 2.9 mph 4.0 mph 50% 0.00 in 0.0 W/m2
01:38 71.8 °F 52.2 °F 29.66 in North 0.9 mph 5.0 mph 50% 0.00 in 0.0 W/m2
01:43 71.6 °F 52.0 °F 29.66 in NNE 2.0 mph 2.0 mph 50% 0.00 in 0.0 W/m2
01:48 71.4 °F 51.8 °F 29.65 in Calm   2.0 mph 50% 0.00 in 0.0 W/m2
01:53 71.4 °F 51.3 °F 29.65 in Calm   2.0 mph 49% 0.00 in 0.0 W/m2
01:58 71.2 °F 51.6 °F 29.66 in North 0.9 mph 4.0 mph 50% 0.00 in 0.0 W/m2
02:03 71.2 °F 51.1 °F 29.65 in Calm   1.0 mph 49% 0.00 in 0.0 W/m2
02:08 71.1 °F 50.9 °F 29.65 in NNW 0.9 mph 1.0 mph 49% 0.00 in 0.0 W/m2
02:14 71.1 °F 50.9 °F 29.65 in NE 0.9 mph 3.0 mph 49% 0.00 in 0.0 W/m2
02:19 71.1 °F 50.9 °F 29.65 in NW 0.9 mph 2.0 mph 49% 0.00 in 0.0 W/m2
02:24 71.1 °F 50.9 °F 29.65 in Calm   3.0 mph 49% 0.00 in 0.0 W/m2
02:29 70.9 °F 50.7 °F 29.65 in North 0.9 mph 4.0 mph 49% 0.00 in 0.0 W/m2
02:34 70.9 °F 50.7 °F 29.65 in North 2.0 mph 3.0 mph 49% 0.00 in 0.0 W/m2
02:39 70.9 °F 50.7 °F 29.65 in Calm   2.0 mph 49% 0.00 in 0.0 W/m2
02:44 70.9 °F 50.7 °F 29.65 in North 0.9 mph 2.0 mph 49% 0.00 in 0.0 W/m2
02:49 70.9 °F 50.7 °F 29.65 in NNE 0.9 mph 2.0 mph 49% 0.00 in 0.0 W/m2
02:55 70.7 °F 50.5 °F 29.65 in Calm   2.0 mph 49% 0.00 in 0.0 W/m2
03:00 70.7 °F 50.5 °F 29.65 in Calm   3.0 mph 49% 0.00 in 0.0 W/m2
03:05 70.5 °F 50.4 °F 29.64 in Calm   1.0 mph 49% 0.00 in 0.0 W/m2
03:10 70.5 °F 50.9 °F 29.64 in Calm   1.0 mph 50% 0.00 in 0.0 W/m2
03:15 70.3 °F 50.9 °F 29.64 in Calm   2.0 mph 50% 0.00 in 0.0 W/m2
03:20 70.3 °F 50.9 °F 29.63 in Calm   1.0 mph 50% 0.00 in 0.0 W/m2
03:25 70.2 °F 50.7 °F 29.63 in Calm     50% 0.00 in 0.0 W/m2
03:31 70.2 °F 50.7 °F 29.63 in Calm     50% 0.00 in 0.0 W/m2
03:35 70.0 °F 51.1 °F 29.63 in Calm   1.0 mph 51% 0.00 in 0.0 W/m2
03:40 70.0 °F 51.1 °F 29.62 in Calm   1.0 mph 51% 0.00 in 0.0 W/m2
03:45 70.0 °F 51.1 °F 29.62 in Calm     51% 0.00 in 0.0 W/m2
03:50 69.8 °F 50.9 °F 29.62 in Calm     51% 0.00 in 0.0 W/m2
03:56 69.8 °F 51.4 °F 29.61 in Calm     52% 0.00 in 0.0 W/m2
04:02 69.6 °F 51.3 °F 29.61 in Calm     52% 0.00 in 0.0 W/m2
04:07 69.6 °F 51.3 °F 29.61 in Calm   1.0 mph 52% 0.00 in 0.0 W/m2
04:12 69.6 °F 51.3 °F 29.61 in Calm     52% 0.00 in 0.0 W/m2
04:17 69.6 °F 51.3 °F 29.61 in Calm     52% 0.00 in 0.0 W/m2
04:22 69.4 °F 51.1 °F 29.61 in Calm     52% 0.00 in 0.0 W/m2
04:27 69.4 °F 51.1 °F 29.61 in Calm     52% 0.00 in 0.0 W/m2
04:33 69.4 °F 51.1 °F 29.61 in Calm   1.0 mph 52% 0.00 in 0.0 W/m2
04:38 69.4 °F 51.6 °F 29.61 in Calm   1.0 mph 53% 0.00 in 0.0 W/m2
04:43 69.3 °F 51.4 °F 29.61 in Calm     53% 0.00 in 0.0 W/m2
04:48 69.3 °F 51.4 °F 29.61 in Calm     53% 0.00 in 0.0 W/m2
04:53 69.3 °F 51.4 °F 29.61 in Calm   1.0 mph 53% 0.00 in 0.0 W/m2
04:59 69.1 °F 51.8 °F 29.61 in Calm     54% 0.00 in 0.0 W/m2
05:04 69.1 °F 51.8 °F 29.61 in Calm     54% 0.00 in 0.0 W/m2
05:09 69.1 °F 51.8 °F 29.61 in Calm   1.0 mph 54% 0.00 in 0.0 W/m2
05:15 68.9 °F 51.6 °F 29.61 in Calm   2.0 mph 54% 0.00 in 0.0 W/m2
05:20 68.9 °F 51.6 °F 29.61 in Calm     54% 0.00 in 0.0 W/m2
05:25 68.9 °F 51.6 °F 29.61 in Calm   1.0 mph 54% 0.00 in 0.0 W/m2
05:30 68.7 °F 51.4 °F 29.61 in ENE 0.9 mph 1.0 mph 54% 0.00 in 0.0 W/m2
05:35 68.7 °F 51.4 °F 29.62 in Calm   1.0 mph 54% 0.00 in 0.0 W/m2
05:40 68.7 °F 51.4 °F 29.62 in Calm   2.0 mph 54% 0.00 in 0.0 W/m2
05:45 68.7 °F 51.4 °F 29.62 in Calm   1.0 mph 54% 0.00 in 0.0 W/m2
05:50 68.5 °F 51.8 °F 29.62 in Calm   1.0 mph 55% 0.00 in 0.0 W/m2
05:56 68.5 °F 51.8 °F 29.62 in Calm   3.0 mph 55% 0.00 in 0.0 W/m2
06:01 68.5 °F 51.8 °F 29.62 in Calm     55% 0.00 in 0.0 W/m2
06:06 68.5 °F 52.2 °F 29.62 in Calm   1.0 mph 56% 0.00 in 0.0 W/m2
06:12 68.5 °F 51.8 °F 29.62 in Calm   1.0 mph 55% 0.00 in 0.0 W/m2
06:17 68.5 °F 51.8 °F 29.62 in SSE 2.9 mph 3.0 mph 55% 0.00 in 0.0 W/m2
06:22 68.5 °F 51.8 °F 29.62 in SSE 2.0 mph 2.0 mph 55% 0.00 in 0.0 W/m2
06:28 68.5 °F 51.8 °F 29.62 in Calm     55% 0.00 in 0.0 W/m2
06:33 68.5 °F 51.8 °F 29.62 in Calm     55% 0.00 in 5.0 W/m2
06:38 68.5 °F 51.8 °F 29.62 in Calm     55% 0.00 in 7.0 W/m2
06:44 68.4 °F 52.0 °F 29.62 in Calm     56% 0.00 in 11.0 W/m2
06:49 68.4 °F 52.0 °F 29.62 in Calm   1.0 mph 56% 0.00 in 12.0 W/m2
06:54 68.5 °F 52.2 °F 29.62 in Calm   1.0 mph 56% 0.00 in 14.0 W/m2
07:00 68.5 °F 51.8 °F 29.62 in Calm   3.0 mph 55% 0.00 in 19.0 W/m2
07:05 68.7 °F 52.0 °F 29.63 in Calm   2.0 mph 55% 0.00 in 21.0 W/m2
07:10 68.7 °F 52.0 °F 29.63 in Calm     55% 0.00 in 18.0 W/m2
07:16 69.1 °F 55.6 °F 29.63 in SSE 2.9 mph 3.0 mph 62% 0.00 in 19.0 W/m2
07:21 68.9 °F 55.4 °F 29.62 in SE 2.0 mph 7.0 mph 62% 0.00 in 26.0 W/m2
07:26 68.9 °F 54.9 °F 29.62 in South 2.0 mph 3.0 mph 61% 0.00 in 30.0 W/m2
07:32 69.4 °F 51.6 °F 29.62 in SSE 8.1 mph 14.0 mph 53% 0.00 in 42.0 W/m2
07:37 70.2 °F 50.7 °F 29.62 in SE 6.0 mph 12.0 mph 50% 0.00 in 54.0 W/m2
07:42 70.5 °F 51.4 °F 29.63 in SSE 4.9 mph 9.0 mph 51% 0.00 in 53.0 W/m2
07:48 70.9 °F 50.7 °F 29.64 in North 2.0 mph 2.0 mph 49% 0.00 in 35.0 W/m2
07:53 71.1 °F 52.5 °F 29.65 in North 8.1 mph 9.0 mph 52% 0.00 in 32.0 W/m2
07:58 70.7 °F 54.3 °F 29.65 in North 2.9 mph 5.0 mph 56% 0.00 in 30.0 W/m2
08:04 70.2 °F 53.8 °F 29.65 in North 4.0 mph 8.0 mph 56% 0.00 in 37.0 W/m2
08:09 70.0 °F 53.6 °F 29.65 in North 0.9 mph 3.0 mph 56% 0.00 in 42.0 W/m2
08:14 70.2 °F 52.7 °F 29.65 in Calm   2.0 mph 54% 0.00 in 51.0 W/m2
08:20 70.2 °F 51.8 °F 29.65 in Calm   2.0 mph 52% 0.00 in 56.0 W/m2
08:25 70.5 °F 52.5 °F 29.65 in NNW 2.0 mph 2.0 mph 53% 0.00 in 62.0 W/m2
08:30 70.9 °F 54.3 °F 29.66 in Calm   1.0 mph 56% 0.00 in 70.0 W/m2
08:36 71.1 °F 55.9 °F 29.66 in Calm   2.0 mph 59% 0.00 in 70.0 W/m2
08:41 71.1 °F 58.3 °F 29.66 in Calm   1.0 mph 64% 0.00 in 69.0 W/m2
08:46 70.9 °F 58.1 °F 29.65 in SSW 0.9 mph 1.0 mph 64% 0.00 in 65.0 W/m2
08:52 70.7 °F 58.8 °F 29.65 in Calm   2.0 mph 66% 0.01 in 65.0 W/m2
08:57 70.3 °F 58.5 °F 29.65 in SE 2.0 mph 3.0 mph 66% 0.01 in 67.0 W/m2
09:02 70.2 °F 55.6 °F 29.65 in SSE 2.9 mph 5.0 mph 60% 0.01 in 72.0 W/m2
09:08 69.8 °F 55.2 °F 29.65 in Calm   1.0 mph 60% 0.01 in 74.0 W/m2
09:13 69.6 °F 57.4 °F 29.66 in NNW 2.0 mph 4.0 mph 65% 0.01 in 86.0 W/m2
09:18 69.4 °F 56.3 °F 29.66 in Calm   7.0 mph 63% 0.01 in 105.0 W/m2
09:24 69.3 °F 56.5 °F 29.67 in NW 2.0 mph 2.0 mph 64% 0.01 in 135.0 W/m2
09:29 69.1 °F 55.0 °F 29.67 in NNW 2.0 mph 3.0 mph 61% 0.01 in 163.0 W/m2
09:34 69.1 °F 55.6 °F 29.67 in NE 2.0 mph 3.0 mph 62% 0.01 in 193.0 W/m2
09:40 69.4 °F 54.5 °F 29.67 in Calm   4.0 mph 59% 0.01 in 243.0 W/m2
09:45 70.0 °F 54.5 °F 29.67 in ENE 2.0 mph 5.0 mph 58% 0.01 in 281.0 W/m2
09:50 70.5 °F 54.1 °F 29.67 in NE 6.0 mph 7.0 mph 56% 0.00 in 343.0 W/m2
09:56 71.6 °F 54.1 °F 29.67 in ENE 0.9 mph 5.0 mph 54% 0.00 in 1046.0 W/m2
10:02 72.9 °F 54.7 °F 29.67 in East 2.9 mph 4.0 mph 53% 0.00 in 322.0 W/m2
10:07 73.4 °F 54.7 °F 29.67 in ENE 0.9 mph 5.0 mph 52% 0.00 in 255.0 W/m2
10:12 73.9 °F 53.6 °F 29.67 in East 2.9 mph 7.0 mph 49% 0.00 in 218.0 W/m2
10:17 74.5 °F 53.4 °F 29.67 in NNE 6.0 mph 7.0 mph 48% 0.00 in 183.0 W/m2
10:22 74.8 °F 52.2 °F 29.67 in ENE 4.0 mph 4.0 mph 45% 0.00 in 179.0 W/m2
10:28 75.2 °F 51.8 °F 29.67 in North 2.0 mph 4.0 mph 44% 0.00 in 185.0 W/m2
10:33 75.6 °F 52.2 °F 29.67 in NE 2.0 mph 5.0 mph 44% 0.00 in 185.0 W/m2
10:38 75.7 °F 51.1 °F 29.67 in Calm   5.0 mph 42% 0.00 in 190.0 W/m2
10:44 76.1 °F 52.0 °F 29.67 in Calm   1.0 mph 43% 0.00 in 188.0 W/m2
10:50 76.5 °F 53.6 °F 29.67 in NE 2.9 mph 8.0 mph 45% 0.00 in 174.0 W/m2
10:55 76.3 °F 54.5 °F 29.67 in NNE 2.0 mph 9.0 mph 47% 0.00 in 160.0 W/m2
11:00 75.9 °F 54.9 °F 29.67 in North 2.9 mph 6.0 mph 48% 0.00 in 160.0 W/m2
11:05 75.7 °F 54.1 °F 29.68 in East 4.0 mph 7.0 mph 47% 0.00 in 148.0 W/m2
11:10 75.6 °F 54.5 °F 29.68 in North 0.9 mph 5.0 mph 48% 0.00 in 127.0 W/m2
11:16 75.6 °F 55.0 °F 29.68 in NW 0.9 mph 4.0 mph 49% 0.00 in 113.0 W/m2
11:21 75.4 °F 54.3 °F 29.68 in NNW 4.0 mph 4.0 mph 48% 0.00 in 105.0 W/m2
11:26 75.2 °F 55.2 °F 29.68 in NNE 6.0 mph 8.0 mph 50% 0.00 in 97.0 W/m2
11:31 74.7 °F 56.5 °F 29.68 in NNE 2.0 mph 4.0 mph 53% 0.00 in 98.0 W/m2
11:37 73.9 °F 55.8 °F 29.68 in NNW 2.0 mph 6.0 mph 53% 0.00 in 104.0 W/m2
11:42 73.4 °F 57.7 °F 29.68 in NNE 2.9 mph 4.0 mph 58% 0.00 in 109.0 W/m2
11:48 72.9 °F 58.1 °F 29.68 in North 0.9 mph 1.0 mph 60% 0.00 in 120.0 W/m2
11:53 72.5 °F 59.2 °F 29.67 in Calm     63% 0.01 in 125.0 W/m2
11:58 72.3 °F 59.0 °F 29.67 in Calm     63% 0.01 in 135.0 W/m2
12:04 72.3 °F 59.0 °F 29.68 in Calm     63% 0.01 in 149.0 W/m2
12:09 72.3 °F 58.1 °F 29.67 in Calm     61% 0.01 in 158.0 W/m2
12:14 72.3 °F 59.5 °F 29.67 in Calm     64% 0.01 in 174.0 W/m2
12:19 72.5 °F 60.4 °F 29.67 in South 2.0 mph 2.0 mph 66% 0.01 in 195.0 W/m2
12:24 72.3 °F 58.1 °F 29.67 in Calm   2.0 mph 61% 0.01 in 216.0 W/m2
12:29 72.3 °F 58.1 °F 29.67 in Calm   1.0 mph 61% 0.01 in 229.0 W/m2
12:34 72.3 °F 58.6 °F 29.67 in Calm   3.0 mph 62% 0.01 in 241.0 W/m2
12:39 72.5 °F 55.4 °F 29.67 in SSW 0.9 mph 4.0 mph 55% 0.01 in 265.0 W/m2
12:44 72.9 °F 55.8 °F 29.67 in SSE 0.9 mph 2.0 mph 55% 0.01 in 343.0 W/m2
12:50 73.6 °F 55.9 °F 29.67 in SE 2.0 mph 3.0 mph 54% 0.01 in 696.0 W/m2
12:55 74.5 °F 56.3 °F 29.66 in SE 0.9 mph 2.0 mph 53% 0.00 in 737.0 W/m2
13:00 75.4 °F 53.8 °F 29.67 in Calm   3.0 mph 47% 0.00 in 628.0 W/m2
13:06 76.3 °F 54.0 °F 29.67 in SE 2.9 mph 4.0 mph 46% 0.00 in 540.0 W/m2
13:11 77.2 °F 53.6 °F 29.66 in Calm   1.0 mph 44% 0.00 in 540.0 W/m2
13:16 77.7 °F 52.2 °F 29.66 in SSE 0.9 mph 1.0 mph 41% 0.00 in 457.0 W/m2
13:21 78.3 °F 53.2 °F 29.66 in Calm     42% 0.00 in 425.0 W/m2
13:26 78.6 °F 50.9 °F 29.66 in Calm   3.0 mph 38% 0.00 in 401.0 W/m2
13:31 78.8 °F 52.5 °F 29.66 in SE 0.9 mph 1.0 mph 40% 0.00 in 411.0 W/m2
13:36 79.0 °F 52.0 °F 29.66 in ESE 0.9 mph 2.0 mph 39% 0.00 in 469.0 W/m2
13:41 79.3 °F 51.4 °F 29.66 in Calm   2.0 mph 38% 0.00 in 575.0 W/m2
13:46 79.9 °F 51.3 °F 29.65 in Calm   1.0 mph 37% 0.00 in 912.0 W/m2
13:52 80.4 °F 53.2 °F 29.65 in WSW 0.9 mph 2.0 mph 39% 0.00 in 487.0 W/m2
13:57 81.1 °F 52.3 °F 29.65 in Calm   3.0 mph 37% 0.00 in 457.0 W/m2
14:02 81.7 °F 52.9 °F 29.65 in NNW 0.9 mph 5.0 mph 37% 0.00 in 390.0 W/m2
14:07 81.9 °F 53.1 °F 29.65 in NNW 0.9 mph 3.0 mph 37% 0.00 in 348.0 W/m2
14:12 82.0 °F 52.5 °F 29.65 in Calm     36% 0.00 in 332.0 W/m2
14:17 82.2 °F 51.8 °F 29.65 in NNW 0.9 mph 4.0 mph 35% 0.00 in 309.0 W/m2
14:22 81.9 °F 52.3 °F 29.65 in Calm   3.0 mph 36% 0.00 in 334.0 W/m2
14:27 81.7 °F 52.9 °F 29.64 in NNW 2.9 mph 5.0 mph 37% 0.00 in 345.0 W/m2
14:33 81.7 °F 52.9 °F 29.65 in NW 0.9 mph 6.0 mph 37% 0.00 in 359.0 W/m2
14:38 81.9 °F 53.8 °F 29.65 in Calm   3.0 mph 38% 0.00 in 410.0 W/m2
14:43 82.2 °F 53.4 °F 29.64 in Calm   3.0 mph 37% 0.00 in 577.0 W/m2
14:48 82.8 °F 53.1 °F 29.65 in NE 4.9 mph 7.0 mph 36% 0.00 in 577.0 W/m2
14:53 82.9 °F 53.2 °F 29.64 in NNW 4.0 mph 4.0 mph 36% 0.00 in 278.0 W/m2
14:58 82.9 °F 54.0 °F 29.64 in NNW 2.9 mph 3.0 mph 37% 0.00 in 243.0 W/m2
15:03 82.9 °F 53.2 °F 29.64 in NE 2.0 mph 4.0 mph 36% 0.00 in 214.0 W/m2
15:08 82.8 °F 53.1 °F 29.64 in East 0.9 mph 3.0 mph 36% 0.00 in 188.0 W/m2
15:13 82.4 °F 52.0 °F 29.64 in Calm   5.0 mph 35% 0.00 in 155.0 W/m2
15:18 81.9 °F 51.4 °F 29.63 in North 2.0 mph 3.0 mph 35% 0.00 in 144.0 W/m2
15:23 81.7 °F 52.2 °F 29.63 in ENE 0.9 mph 3.0 mph 36% 0.00 in 137.0 W/m2
15:29 81.7 °F 52.2 °F 29.63 in Calm     36% 0.00 in 135.0 W/m2
15:34 81.3 °F 51.1 °F 29.63 in Calm   2.0 mph 35% 0.00 in 137.0 W/m2
15:39 81.1 °F 50.9 °F 29.63 in Calm   3.0 mph 35% 0.00 in 128.0 W/m2
15:44 81.0 °F 51.4 °F 29.63 in Calm     36% 0.00 in 121.0 W/m2
15:49 81.0 °F 52.2 °F 29.63 in NW 2.0 mph 2.0 mph 37% 0.00 in 120.0 W/m2
15:54 80.8 °F 50.5 °F 29.63 in NNW 0.9 mph 2.0 mph 35% 0.00 in 125.0 W/m2
15:59 80.6 °F 50.4 °F 29.63 in Calm   3.0 mph 35% 0.00 in 134.0 W/m2
16:04 80.4 °F 50.2 °F 29.63 in Calm   3.0 mph 35% 0.00 in 142.0 W/m2
16:09 80.4 °F 51.8 °F 29.63 in Calm     37% 0.00 in 146.0 W/m2
16:15 80.4 °F 50.2 °F 29.62 in Calm   2.0 mph 35% 0.00 in 137.0 W/m2
16:20 80.4 °F 50.2 °F 29.62 in NNW 0.9 mph 1.0 mph 35% 0.00 in 155.0 W/m2
16:25 80.2 °F 50.9 °F 29.62 in Calm   1.0 mph 36% 0.00 in 179.0 W/m2
16:30 80.2 °F 50.2 °F 29.62 in Calm   1.0 mph 35% 0.00 in 192.0 W/m2
16:35 80.4 °F 51.8 °F 29.62 in Calm     37% 0.00 in 204.0 W/m2
16:40 80.6 °F 52.0 °F 29.61 in Calm     37% 0.00 in 202.0 W/m2
16:45 80.8 °F 52.2 °F 29.61 in Calm     37% 0.00 in 207.0 W/m2
16:50 81.0 °F 51.4 °F 29.61 in Calm     36% 0.00 in 202.0 W/m2
16:55 81.0 °F 51.4 °F 29.61 in SSW 0.9 mph 2.0 mph 36% 0.00 in 192.0 W/m2
17:01 81.0 °F 51.4 °F 29.61 in Calm   2.0 mph 36% 0.00 in 188.0 W/m2
17:06 81.0 °F 51.4 °F 29.60 in Calm     36% 0.00 in 202.0 W/m2
17:11 81.1 °F 51.6 °F 29.60 in Calm   1.0 mph 36% 0.00 in 207.0 W/m2
17:16 81.1 °F 50.9 °F 29.60 in Calm   3.0 mph 35% 0.00 in 213.0 W/m2
17:21 81.3 °F 51.1 °F 29.60 in SE 0.9 mph 4.0 mph 35% 0.00 in 229.0 W/m2
17:26 81.3 °F 51.8 °F 29.60 in SE 2.9 mph 3.0 mph 36% 0.00 in 309.0 W/m2
17:31 81.9 °F 51.4 °F 29.59 in ESE 2.0 mph 5.0 mph 35% 0.00 in 490.0 W/m2
17:36 82.2 °F 51.8 °F 29.59 in SE 2.9 mph 4.0 mph 35% 0.00 in 225.0 W/m2
17:42 82.6 °F 52.2 °F 29.60 in SE 0.9 mph 2.0 mph 35% 0.00 in 178.0 W/m2
17:47 82.6 °F 50.5 °F 29.60 in SE 0.9 mph 1.0 mph 33% 0.00 in 165.0 W/m2
17:52 82.4 °F 52.0 °F 29.60 in ESE 2.0 mph 2.0 mph 35% 0.00 in 181.0 W/m2
17:57 82.2 °F 51.8 °F 29.60 in Calm     35% 0.00 in 174.0 W/m2
18:02 82.4 °F 52.0 °F 29.59 in Calm   1.0 mph 35% 0.00 in 174.0 W/m2
18:07 82.4 °F 51.3 °F 29.60 in Calm   1.0 mph 34% 0.00 in 169.0 W/m2
18:12 82.4 °F 51.3 °F 29.60 in Calm   1.0 mph 34% 0.00 in 151.0 W/m2
18:18 82.2 °F 51.8 °F 29.60 in SSW 2.0 mph 4.0 mph 35% 0.00 in 232.0 W/m2
18:23 82.4 °F 52.0 °F 29.60 in Calm     35% 0.00 in 139.0 W/m2
18:28 82.8 °F 51.4 °F 29.60 in SSE 2.0 mph 2.0 mph 34% 0.00 in 162.0 W/m2
18:33 83.1 °F 51.8 °F 29.61 in Calm   1.0 mph 34% 0.00 in 109.0 W/m2
18:38 83.5 °F 52.2 °F 29.61 in WSW 0.9 mph 1.0 mph 34% 0.00 in 169.0 W/m2
18:43 83.7 °F 51.4 °F 29.61 in Calm     33% 0.00 in 83.0 W/m2
18:48 83.5 °F 52.2 °F 29.61 in Calm   1.0 mph 34% 0.00 in 72.0 W/m2
18:53 83.1 °F 51.1 °F 29.61 in Calm     33% 0.00 in 67.0 W/m2
18:58 83.1 °F 51.8 °F 29.61 in Calm     34% 0.00 in 63.0 W/m2
19:03 82.9 °F 51.6 °F 29.61 in Calm     34% 0.00 in 54.0 W/m2
19:09 82.8 °F 51.4 °F 29.61 in Calm   1.0 mph 34% 0.00 in 49.0 W/m2
19:14 82.6 °F 51.4 °F 29.62 in Calm   1.0 mph 34% 0.00 in 35.0 W/m2
19:19 82.2 °F 51.1 °F 29.62 in Calm     34% 0.00 in 28.0 W/m2
19:24 81.9 °F 50.7 °F 29.62 in Calm     34% 0.00 in 21.0 W/m2
19:29 81.7 °F 51.4 °F 29.62 in Calm   1.0 mph 35% 0.00 in 14.0 W/m2
19:34 81.3 °F 51.1 °F 29.62 in Calm     35% 0.00 in 9.0 W/m2
19:39 81.0 °F 51.4 °F 29.62 in Calm     36% 0.00 in 5.0 W/m2
19:44 80.6 °F 51.3 °F 29.62 in Calm     36% 0.00 in 0.0 W/m2
19:49 80.2 °F 51.6 °F 29.63 in Calm     37% 0.00 in 0.0 W/m2
19:54 79.9 °F 51.3 °F 29.63 in Calm     37% 0.00 in 0.0 W/m2
19:59 79.5 °F 51.6 °F 29.63 in Calm     38% 0.00 in 0.0 W/m2
20:05 79.0 °F 51.3 °F 29.63 in Calm     38% 0.00 in 0.0 W/m2
20:10 78.6 °F 51.6 °F 29.63 in Calm     39% 0.00 in 0.0 W/m2
20:15 78.3 °F 51.3 °F 29.64 in Calm     39% 0.00 in 0.0 W/m2
20:20 77.7 °F 51.4 °F 29.64 in Calm     40% 0.00 in 0.0 W/m2
20:25 77.4 °F 51.1 °F 29.64 in Calm     40% 0.00 in 0.0 W/m2
20:30 77.2 °F 51.6 °F 29.64 in Calm     41% 0.00 in 0.0 W/m2
20:35 76.8 °F 51.3 °F 29.65 in Calm   1.0 mph 41% 0.00 in 0.0 W/m2
20:40 76.5 °F 50.4 °F 29.65 in NNW 4.0 mph 7.0 mph 40% 0.00 in 0.0 W/m2
20:45 76.6 °F 50.5 °F 29.65 in NE 4.0 mph 7.0 mph 40% 0.00 in 0.0 W/m2
20:51 76.8 °F 51.3 °F 29.66 in NNW 4.0 mph 7.0 mph 41% 0.00 in 0.0 W/m2
20:56 76.8 °F 51.3 °F 29.66 in NNW 2.9 mph 7.0 mph 41% 0.00 in 0.0 W/m2
21:01 76.6 °F 51.3 °F 29.66 in NNW 4.9 mph 9.0 mph 41% 0.00 in 0.0 W/m2
21:06 76.5 °F 51.6 °F 29.67 in North 4.9 mph 8.0 mph 42% 0.00 in 0.0 W/m2
21:11 76.3 °F 51.4 °F 29.67 in NW 2.9 mph 9.0 mph 42% 0.00 in 0.0 W/m2
21:16 75.9 °F 51.3 °F 29.67 in NNE 2.0 mph 4.0 mph 42% 0.00 in 0.0 W/m2
21:21 75.7 °F 51.6 °F 29.68 in NNE 4.0 mph 4.0 mph 43% 0.00 in 0.0 W/m2
21:26 75.7 °F 51.6 °F 29.68 in NNE 8.1 mph 11.0 mph 43% 0.00 in 0.0 W/m2
21:32 75.4 °F 51.3 °F 29.69 in North 4.0 mph 14.0 mph 43% 0.00 in 0.0 W/m2
21:37 75.0 °F 51.6 °F 29.69 in NE 2.9 mph 10.0 mph 44% 0.00 in 0.0 W/m2
21:42 74.8 °F 52.7 °F 29.70 in NNW 6.9 mph 11.0 mph 46% 0.00 in 0.0 W/m2
21:47 74.5 °F 53.4 °F 29.70 in North 8.9 mph 14.0 mph 48% 0.00 in 0.0 W/m2
21:52 73.9 °F 53.6 °F 29.70 in North 6.0 mph 10.0 mph 49% 0.00 in 0.0 W/m2
21:57 73.8 °F 54.0 °F 29.70 in NNE 8.1 mph 10.0 mph 50% 0.00 in 0.0 W/m2
22:02 73.4 °F 53.6 °F 29.70 in North 2.0 mph 8.0 mph 50% 0.00 in 0.0 W/m2
22:07 73.2 °F 53.4 °F 29.70 in NNW 4.9 mph 10.0 mph 50% 0.00 in 0.0 W/m2
22:12 73.2 °F 53.4 °F 29.70 in NE 4.0 mph 6.0 mph 50% 0.00 in 0.0 W/m2
22:18 73.0 °F 52.7 °F 29.70 in NNW 6.9 mph 7.0 mph 49% 0.00 in 0.0 W/m2
22:23 73.0 °F 52.7 °F 29.71 in North 8.1 mph 8.1 mph 49% 0.00 in 0.0 W/m2
22:28 72.9 °F 52.5 °F 29.71 in NW 8.9 mph 9.0 mph 49% 0.00 in 0.0 W/m2
22:33 72.5 °F 52.3 °F 29.71 in NNW 6.0 mph 10.0 mph 49% 0.00 in 0.0 W/m2
22:38 72.3 °F 52.2 °F 29.71 in Calm   6.0 mph 49% 0.00 in 0.0 W/m2
22:43 72.0 °F 52.3 °F 29.71 in North 2.9 mph 3.0 mph 50% 0.00 in 0.0 W/m2
22:48 72.0 °F 52.9 °F 29.72 in North 4.9 mph 5.0 mph 51% 0.00 in 0.0 W/m2
22:53 71.6 °F 53.1 °F 29.72 in Calm   7.0 mph 52% 0.00 in 0.0 W/m2
22:58 71.2 °F 54.3 °F 29.72 in NW 2.0 mph 5.0 mph 55% 0.00 in 0.0 W/m2
23:04 70.9 °F 54.3 °F 29.72 in Calm   2.0 mph 56% 0.00 in 0.0 W/m2
23:09 70.3 °F 54.0 °F 29.72 in Calm   1.0 mph 56% 0.00 in 0.0 W/m2
23:14 70.2 °F 54.7 °F 29.72 in Calm   1.0 mph 58% 0.00 in 0.0 W/m2
23:19 70.0 °F 54.5 °F 29.72 in Calm     58% 0.00 in 0.0 W/m2
23:24 69.6 °F 54.1 °F 29.72 in NW 0.9 mph 1.0 mph 58% 0.00 in 0.0 W/m2
23:29 69.4 °F 54.5 °F 29.72 in Calm     59% 0.00 in 0.0 W/m2
23:34 69.3 °F 54.9 °F 29.72 in WSW 0.9 mph 2.0 mph 60% 0.00 in 0.0 W/m2
23:40 69.1 °F 55.0 °F 29.72 in Calm   1.0 mph 61% 0.00 in 0.0 W/m2
23:45 68.9 °F 55.4 °F 29.72 in Calm   3.0 mph 62% 0.00 in 0.0 W/m2
23:50 68.7 °F 55.6 °F 29.72 in Calm   1.0 mph 63% 0.00 in 0.0 W/m2
23:55 68.5 °F 55.9 °F 29.72 in Calm   2.0 mph 64% 0.00 in 0.0 W/m2
Olympia, Windhoek, Namibia
Compliments of Weather Underground - 3.25 mb